Tongan II — 5BES4 — position and weather

sailwx.info

Track history (hours):
 
Tides and Currents Weather Stations Pressure Air Temp Water Temp Dewpoint Dewpoint Depression Visibility Wind Speed Wind Dir Waves Ship Positions

Tongan II

Last reported at 2017-Oct-17 04:00 UTC. Time now 2017-Oct-17 04:15 UTC.
Position N 44°38' E 014°11'.

Length 180 m; draft 7.1 m.

Type: Ship (hazmat cat A). MMSI: 212267000.

Date/timePositionNaut miles runAvg speedWind from/ knotsBaromVisibWave heightAir tempDewpointWater temp
2017-Oct-17 04:00N 44°38' E 014°11'611.4
2017-Oct-17 03:28N 44°44' E 014°12'511.6
2017-Oct-17 03:01N 44°50' E 014°13'611.8
2017-Oct-17 02:30N 44°56' E 014°13'611.8
2017-Oct-17 02:00N 45°02' E 014°13'611.8
2017-Oct-17 01:29N 45°08' E 014°14'611.5
2017-Oct-17 00:58N 45°13' E 014°18'511.8
2017-Oct-17 00:30N 45°17' E 014°24'3 0.7
2017-Oct-16 19:37N 45°19' E 014°27'0 0.0
2017-Oct-16 19:25N 45°19' E 014°27'0 0.0
2017-Oct-16 18:43N 45°19' E 014°27'0 0.4
2017-Oct-16 18:24N 45°19' E 014°27'1 3.5
2017-Oct-16 18:00N 45°18' E 014°25'0 0.0
2017-Oct-16 12:30N 45°18' E 014°26'0 0.1
2017-Oct-16 12:00N 45°18' E 014°26'4 8.6
2017-Oct-16 11:28N 45°15' E 014°22'711.4
2017-Oct-16 10:50N 45°09' E 014°16'411.5
2017-Oct-16 10:29N 45°05' E 014°15'611.2
2017-Oct-16 09:55N 44°58' E 014°14'511.4
2017-Oct-16 09:30N 44°54' E 014°14'611.3
2017-Oct-16 09:00N 44°48' E 014°14'611.6
2017-Oct-16 08:30N 44°42' E 014°13'611.4
2017-Oct-16 08:00N 44°37' E 014°12'611.1
2017-Oct-16 07:30N 44°31' E 014°12'510.7
2017-Oct-16 07:00N 44°26' E 014°13'611.4
2017-Oct-16 06:30N 44°22' E 014°18'611.7
2017-Oct-16 06:00N 44°19' E 014°26'611.7
2017-Oct-16 05:29N 44°15' E 014°32'711.8
2017-Oct-16 04:54N 44°10' E 014°39'511.7
2017-Oct-16 04:29N 44°06' E 014°43'611.6
2017-Oct-16 03:59N 44°02' E 014°49'1111.6
2017-Oct-16 03:02N 43°54' E 014°60'211.7
2017-Oct-16 02:55N 43°53' E 015°01'511.5
2017-Oct-16 02:27N 43°49' E 015°06'1811.3
2017-Oct-16 00:50N 43°37' E 015°24'21 0.6
2017-Oct-14 12:50N 43°16' E 015°33'515.0
2017-Oct-14 12:30N 43°18' E 015°27'6115.2
2017-Oct-14 08:28N 43°37' E 014°06'27 5.9
2017-Oct-14 03:58N 43°37' E 013°30'0 0.0
2017-Oct-14 03:22N 43°37' E 013°30'0 0.0
2017-Oct-14 02:58N 43°37' E 013°30'0 0.0
2017-Oct-14 02:25N 43°37' E 013°30'0 0.0
2017-Oct-14 01:58N 43°37' E 013°30'0 0.0
2017-Oct-14 01:26N 43°37' E 013°30'0 0.0
2017-Oct-14 00:58N 43°37' E 013°30'0 0.0
2017-Oct-14 00:28N 43°37' E 013°30'0 0.0
2017-Oct-13 23:58N 43°37' E 013°30'0 0.0
2017-Oct-13 23:28N 43°37' E 013°30'0 0.0
2017-Oct-13 22:58N 43°37' E 013°30'0 0.0
2017-Oct-13 22:01N 43°37' E 013°30'0 0.1
2017-Oct-13 21:58N 43°37' E 013°30'0 0.0
2017-Oct-13 21:25N 43°37' E 013°30'0 0.0
2017-Oct-13 20:52N 43°37' E 013°30'0 0.0
2017-Oct-13 20:01N 43°37' E 013°30'0 0.0
2017-Oct-13 19:55N 43°37' E 013°30'0 0.0
2017-Oct-13 19:22N 43°37' E 013°30'0 0.0
2017-Oct-13 18:52N 43°37' E 013°30'1 1.5
2017-Oct-13 18:30N 43°38' E 013°29'1 2.3
2017-Oct-13 17:59N 43°39' E 013°28'0 0.1
2017-Oct-13 17:05N 43°39' E 013°28'0 0.0
2017-Oct-13 16:56N 43°39' E 013°28'0 0.0
2017-Oct-13 16:29N 43°39' E 013°28'0 0.0
2017-Oct-13 15:53N 43°39' E 013°28'0 0.0
2017-Oct-13 15:29N 43°39' E 013°28'0 0.0
2017-Oct-13 14:47N 43°39' E 013°28'0 0.0
2017-Oct-13 13:50N 43°39' E 013°28'0 0.0
2017-Oct-13 13:27N 43°39' E 013°28'0 0.0
2017-Oct-13 13:00N 43°39' E 013°28'0 0.0
2017-Oct-13 12:30N 43°39' E 013°28'0 0.0
2017-Oct-13 12:00N 43°39' E 013°28'0 0.0
2017-Oct-13 11:09N 43°39' E 013°28'0 0.0
2017-Oct-13 10:47N 43°39' E 013°28'0 0.1
2017-Oct-13 10:24N 43°39' E 013°28'16 9.1
2017-Oct-13 08:36N 43°39' E 013°51'213.6
2017-Oct-13 08:25N 43°38' E 013°53'613.9
2017-Oct-13 08:00N 43°34' E 013°60'714.2
2017-Oct-13 07:29N 43°30' E 014°08'914.5
2017-Oct-13 06:52N 43°24' E 014°18'17514.2
2017-Oct-12 18:30N 41°27' E 017°14'714.2
2017-Oct-12 18:00N 41°22' E 017°21'714.4
2017-Oct-12 17:30N 41°17' E 017°28'714.4
2017-Oct-12 17:00N 41°12' E 017°34'714.5
2017-Oct-12 16:30N 41°07' E 017°41'714.3
2017-Oct-12 15:59N 41°01' E 017°48'814.4
2017-Oct-12 15:26N 40°55' E 017°55'7512.1
2017-Oct-12 09:13N 39°43' E 018°22'313.7
2017-Oct-12 09:00N 39°41' E 018°20'713.9
2017-Oct-12 08:30N 39°36' E 018°14'713.6
2017-Oct-12 07:59N 39°31' E 018°07'713.8
2017-Oct-12 07:30N 39°26' E 018°02'714.3
2017-Oct-12 06:59N 39°21' E 017°55'714.4
2017-Oct-12 06:30N 39°16' E 017°49'814.3
2017-Oct-12 05:58N 39°10' E 017°42'714.1
2017-Oct-12 05:30N 39°06' E 017°36'10514.1
2017-Oct-11 22:01N 37°50' E 016°02'015.2
2017-Oct-11 22:00N 37°50' E 016°02'814.7
2017-Oct-11 21:26N 37°51' E 015°51'614.5
2017-Oct-11 21:00N 37°52' E 015°44'713.3
2017-Oct-11 20:30N 37°55' E 015°36'714.4
2017-Oct-11 20:00N 38°01' E 015°33'714.7
2017-Oct-11 19:30N 38°09' E 015°35'713.5
2017-Oct-11 19:01N 38°15' E 015°38'714.2
2017-Oct-11 18:31N 38°20' E 015°44'714.2
2017-Oct-11 18:01N 38°25' E 015°50'4 6.5
2017-Oct-11 17:27N 38°27' E 015°54'0 0.0
2017-Oct-11 16:57N 38°27' E 015°54'0 0.0
2017-Oct-10 23:57N 38°27' E 015°54'0 0.0
2017-Oct-10 23:30N 38°27' E 015°54'0 0.0
2017-Oct-10 22:48N 38°27' E 015°54'0 0.0
2017-Oct-10 22:30N 38°27' E 015°54'0 0.0
2017-Oct-10 22:00N 38°27' E 015°54'0 0.0
2017-Oct-10 21:27N 38°27' E 015°54'0 0.0
2017-Oct-10 21:00N 38°27' E 015°54'0 0.0
2017-Oct-10 20:30N 38°27' E 015°54'0 0.0
2017-Oct-10 20:00N 38°27' E 015°54'0 0.0
2017-Oct-10 19:30N 38°27' E 015°54'0 0.0
2017-Oct-10 08:00N 38°27' E 015°54'0 0.0
2017-Oct-10 07:30N 38°27' E 015°54'0 0.0
2017-Oct-10 06:48N 38°27' E 015°54'0 0.0
2017-Oct-10 06:24N 38°27' E 015°54'0 0.0
2017-Oct-10 06:00N 38°27' E 015°54'0 0.0
2017-Oct-10 05:30N 38°27' E 015°54'0 0.2
2017-Oct-10 05:01N 38°27' E 015°54'2 4.3
2017-Oct-10 04:30N 38°28' E 015°51'611.1
2017-Oct-10 04:00N 38°30' E 015°45'2 3.2
2017-Oct-10 03:30N 38°31' E 015°43'0 0.2
2017-Oct-10 03:00N 38°31' E 015°43'0 0.2
2017-Oct-10 02:30N 38°31' E 015°44'0 0.2
2017-Oct-10 02:00N 38°31' E 015°44'0 0.4
2017-Oct-10 01:30N 38°31' E 015°43'0 0.7
2017-Oct-10 01:00N 38°31' E 015°43'1 1.1
2017-Oct-10 00:30N 38°30' E 015°42'1 1.3
2017-Oct-10 00:00N 38°30' E 015°42'1 1.4
2017-Oct-09 23:30N 38°29' E 015°42'510.2
2017-Oct-09 23:00N 38°25' E 015°47'510.8
2017-Oct-09 22:30N 38°20' E 015°45'611.1
2017-Oct-09 22:00N 38°16' E 015°41'510.0
2017-Oct-09 21:30N 38°12' E 015°37'612.0
2017-Oct-09 21:00N 38°06' E 015°36'611.6
2017-Oct-09 20:30N 38°00' E 015°35'611.8
2017-Oct-09 20:00N 37°55' E 015°38'612.0
2017-Oct-09 19:30N 37°49' E 015°42'611.4
2017-Oct-09 19:00N 37°45' E 015°46'611.5
2017-Oct-09 18:30N 37°41' E 015°51'611.4
2017-Oct-09 18:00N 37°36' E 015°56'3 6.6
2017-Oct-09 17:30N 37°36' E 015°60'0 0.5
2017-Oct-09 17:00N 37°36' E 015°60'0 0.4
2017-Oct-09 16:30N 37°36' E 015°60'7 0.6
2017-Oct-09 05:32N 37°32' E 015°53'0 0.7
2017-Oct-09 05:28N 37°32' E 015°53'0 0.7
2017-Oct-09 04:59N 37°32' E 015°53'0 0.7
2017-Oct-09 04:28N 37°32' E 015°52'0 0.6
2017-Oct-09 03:59N 37°32' E 015°52'5 0.5
2017-Oct-08 16:56N 37°32' E 015°45'912.4
2017-Oct-08 16:12N 37°29' E 015°34'2 0.4
2017-Oct-08 11:04N 37°30' E 015°32'0 0.6
2017-Oct-08 11:00N 37°30' E 015°32'0 0.5
2017-Oct-08 10:29N 37°30' E 015°32'0 0.8
2017-Oct-08 10:00N 37°30' E 015°32'1 0.9
2017-Oct-08 09:25N 37°31' E 015°32'0 1.0
2017-Oct-08 08:59N 37°31' E 015°32'0 0.9
2017-Oct-08 08:30N 37°32' E 015°32'0 0.9
2017-Oct-08 07:59N 37°32' E 015°32'1 1.1
2017-Oct-08 07:24N 37°33' E 015°32'0 1.1
2017-Oct-08 07:00N 37°33' E 015°32'1 1.0
2017-Oct-08 06:28N 37°34' E 015°33'0 1.1
2017-Oct-08 06:00N 37°34' E 015°33'1 1.2
2017-Oct-08 05:30N 37°35' E 015°33'1 1.1
2017-Oct-08 04:59N 37°35' E 015°33'1 1.1
2017-Oct-08 04:30N 37°36' E 015°34'0 0.9
2017-Oct-08 04:00N 37°36' E 015°34'0 1.0
2017-Oct-08 03:30N 37°36' E 015°34'1 1.3
2017-Oct-08 03:00N 37°37' E 015°35'1 1.3
2017-Oct-08 02:28N 37°38' E 015°35'1 1.4
2017-Oct-08 02:00N 37°38' E 015°35'1 1.4
2017-Oct-08 01:30N 37°39' E 015°36'1 1.5
2017-Oct-08 01:00N 37°39' E 015°36'1 1.4
2017-Oct-08 00:30N 37°40' E 015°37'1 1.4
2017-Oct-07 23:59N 37°40' E 015°38'1 1.3
2017-Oct-07 23:30N 37°41' E 015°38'1 1.3
2017-Oct-07 23:00N 37°41' E 015°39'1 1.4
2017-Oct-07 22:30N 37°42' E 015°39'1 1.5
2017-Oct-07 22:01N 37°42' E 015°40'1 1.5
2017-Oct-07 21:28N 37°43' E 015°40'1 1.4
2017-Oct-07 21:00N 37°44' E 015°41'1 1.3
2017-Oct-07 20:30N 37°44' E 015°41'1 1.1
2017-Oct-07 20:00N 37°45' E 015°42'1 1.1
2017-Oct-07 19:30N 37°45' E 015°42'1 1.0
2017-Oct-07 19:00N 37°46' E 015°42'1 1.1
2017-Oct-07 18:30N 37°46' E 015°43'0 0.7
2017-Oct-07 18:01N 37°46' E 015°43'510.3
2017-Oct-07 17:30N 37°48' E 015°37'4 7.1
2017-Oct-07 17:00N 37°51' E 015°34'611.4
2017-Oct-07 16:30N 37°57' E 015°34'611.5
2017-Oct-07 16:00N 38°03' E 015°34'611.5
2017-Oct-07 15:30N 38°08' E 015°35'611.3
2017-Oct-07 15:00N 38°14' E 015°36'5 9.8
2017-Oct-07 14:30N 38°17' E 015°41'3 5.5
2017-Oct-07 14:00N 38°18' E 015°44'510.4
2017-Oct-07 13:30N 38°15' E 015°39'5 9.4
2017-Oct-07 13:00N 38°11' E 015°37'4 9.0
2017-Oct-07 12:30N 38°06' E 015°36'510.5
2017-Oct-07 12:00N 38°01' E 015°35'5 9.8
2017-Oct-07 11:30N 37°56' E 015°37'5 9.6
2017-Oct-07 11:00N 37°52' E 015°40'510.5
2017-Oct-07 10:30N 37°52' E 015°46'611.0
2017-Oct-07 10:00N 37°52' E 015°53'  
Track history (hours):
 
Tides and Currents Weather Stations Pressure Air Temp Water Temp Dewpoint Dewpoint Depression Visibility Wind Speed Wind Dir Waves Ship Positions

Tongan II

Last reported at 2017-Oct-17 04:00 UTC. Time now 2017-Oct-17 04:15 UTC.
Position N 44°38' E 014°11'.

Length 180 m; draft 7.1 m.

Type: Ship (hazmat cat A). MMSI: 212267000.

Date/timePositionNaut miles runAvg speedWind from/ knotsBaromVisibWave heightAir tempDewpointWater temp
2017-Oct-17 04:00N 44°38' E 014°11'611.4
2017-Oct-17 03:28N 44°44' E 014°12'511.6
2017-Oct-17 03:01N 44°50' E 014°13'611.8
2017-Oct-17 02:30N 44°56' E 014°13'611.8
2017-Oct-17 02:00N 45°02' E 014°13'611.8
2017-Oct-17 01:29N 45°08' E 014°14'611.5
2017-Oct-17 00:58N 45°13' E 014°18'511.8
2017-Oct-17 00:30N 45°17' E 014°24'3 0.7
2017-Oct-16 19:37N 45°19' E 014°27'0 0.0
2017-Oct-16 19:25N 45°19' E 014°27'0 0.0
2017-Oct-16 18:43N 45°19' E 014°27'0 0.4
2017-Oct-16 18:24N 45°19' E 014°27'1 3.5
2017-Oct-16 18:00N 45°18' E 014°25'0 0.0
2017-Oct-16 12:30N 45°18' E 014°26'0 0.1
2017-Oct-16 12:00N 45°18' E 014°26'4 8.6
2017-Oct-16 11:28N 45°15' E 014°22'711.4
2017-Oct-16 10:50N 45°09' E 014°16'411.5
2017-Oct-16 10:29N 45°05' E 014°15'611.2
2017-Oct-16 09:55N 44°58' E 014°14'511.4
2017-Oct-16 09:30N 44°54' E 014°14'611.3
2017-Oct-16 09:00N 44°48' E 014°14'611.6
2017-Oct-16 08:30N 44°42' E 014°13'611.4
2017-Oct-16 08:00N 44°37' E 014°12'611.1
2017-Oct-16 07:30N 44°31' E 014°12'510.7
2017-Oct-16 07:00N 44°26' E 014°13'611.4
2017-Oct-16 06:30N 44°22' E 014°18'611.7
2017-Oct-16 06:00N 44°19' E 014°26'611.7
2017-Oct-16 05:29N 44°15' E 014°32'711.8
2017-Oct-16 04:54N 44°10' E 014°39'511.7
2017-Oct-16 04:29N 44°06' E 014°43'611.6
2017-Oct-16 03:59N 44°02' E 014°49'1111.6
2017-Oct-16 03:02N 43°54' E 014°60'211.7
2017-Oct-16 02:55N 43°53' E 015°01'511.5
2017-Oct-16 02:27N 43°49' E 015°06'1811.3
2017-Oct-16 00:50N 43°37' E 015°24'21 0.6
2017-Oct-14 12:50N 43°16' E 015°33'515.0
2017-Oct-14 12:30N 43°18' E 015°27'6115.2
2017-Oct-14 08:28N 43°37' E 014°06'27 5.9
2017-Oct-14 03:58N 43°37' E 013°30'0 0.0
2017-Oct-14 03:22N 43°37' E 013°30'0 0.0
2017-Oct-14 02:58N 43°37' E 013°30'0 0.0
2017-Oct-14 02:25N 43°37' E 013°30'0 0.0
2017-Oct-14 01:58N 43°37' E 013°30'0 0.0
2017-Oct-14 01:26N 43°37' E 013°30'0 0.0
2017-Oct-14 00:58N 43°37' E 013°30'0 0.0
2017-Oct-14 00:28N 43°37' E 013°30'0 0.0
2017-Oct-13 23:58N 43°37' E 013°30'0 0.0
2017-Oct-13 23:28N 43°37' E 013°30'0 0.0
2017-Oct-13 22:58N 43°37' E 013°30'0 0.0
2017-Oct-13 22:01N 43°37' E 013°30'0 0.1
2017-Oct-13 21:58N 43°37' E 013°30'0 0.0
2017-Oct-13 21:25N 43°37' E 013°30'0 0.0
2017-Oct-13 20:52N 43°37' E 013°30'0 0.0
2017-Oct-13 20:01N 43°37' E 013°30'0 0.0
2017-Oct-13 19:55N 43°37' E 013°30'0 0.0
2017-Oct-13 19:22N 43°37' E 013°30'0 0.0
2017-Oct-13 18:52N 43°37' E 013°30'1 1.5
2017-Oct-13 18:30N 43°38' E 013°29'1 2.3
2017-Oct-13 17:59N 43°39' E 013°28'0 0.1
2017-Oct-13 17:05N 43°39' E 013°28'0 0.0
2017-Oct-13 16:56N 43°39' E 013°28'0 0.0
2017-Oct-13 16:29N 43°39' E 013°28'0 0.0
2017-Oct-13 15:53N 43°39' E 013°28'0 0.0
2017-Oct-13 15:29N 43°39' E 013°28'0 0.0
2017-Oct-13 14:47N 43°39' E 013°28'0 0.0
2017-Oct-13 13:50N 43°39' E 013°28'0 0.0
2017-Oct-13 13:27N 43°39' E 013°28'0 0.0
2017-Oct-13 13:00N 43°39' E 013°28'0 0.0
2017-Oct-13 12:30N 43°39' E 013°28'0 0.0
2017-Oct-13 12:00N 43°39' E 013°28'0 0.0
2017-Oct-13 11:09N 43°39' E 013°28'0 0.0
2017-Oct-13 10:47N 43°39' E 013°28'0 0.1
2017-Oct-13 10:24N 43°39' E 013°28'16 9.1
2017-Oct-13 08:36N 43°39' E 013°51'213.6
2017-Oct-13 08:25N 43°38' E 013°53'613.9
2017-Oct-13 08:00N 43°34' E 013°60'714.2
2017-Oct-13 07:29N 43°30' E 014°08'914.5
2017-Oct-13 06:52N 43°24' E 014°18'17514.2
2017-Oct-12 18:30N 41°27' E 017°14'714.2
2017-Oct-12 18:00N 41°22' E 017°21'714.4
2017-Oct-12 17:30N 41°17' E 017°28'714.4
2017-Oct-12 17:00N 41°12' E 017°34'714.5
2017-Oct-12 16:30N 41°07' E 017°41'714.3
2017-Oct-12 15:59N 41°01' E 017°48'814.4
2017-Oct-12 15:26N 40°55' E 017°55'7512.1
2017-Oct-12 09:13N 39°43' E 018°22'313.7
2017-Oct-12 09:00N 39°41' E 018°20'713.9
2017-Oct-12 08:30N 39°36' E 018°14'713.6
2017-Oct-12 07:59N 39°31' E 018°07'713.8
2017-Oct-12 07:30N 39°26' E 018°02'714.3
2017-Oct-12 06:59N 39°21' E 017°55'714.4
2017-Oct-12 06:30N 39°16' E 017°49'814.3
2017-Oct-12 05:58N 39°10' E 017°42'714.1
2017-Oct-12 05:30N 39°06' E 017°36'10514.1
2017-Oct-11 22:01N 37°50' E 016°02'015.2
2017-Oct-11 22:00N 37°50' E 016°02'814.7
2017-Oct-11 21:26N 37°51' E 015°51'614.5
2017-Oct-11 21:00N 37°52' E 015°44'713.3
2017-Oct-11 20:30N 37°55' E 015°36'714.4
2017-Oct-11 20:00N 38°01' E 015°33'714.7
2017-Oct-11 19:30N 38°09' E 015°35'713.5
2017-Oct-11 19:01N 38°15' E 015°38'714.2
2017-Oct-11 18:31N 38°20' E 015°44'714.2
2017-Oct-11 18:01N 38°25' E 015°50'4 6.5
2017-Oct-11 17:27N 38°27' E 015°54'0 0.0
2017-Oct-11 16:57N 38°27' E 015°54'0 0.0
2017-Oct-10 23:57N 38°27' E 015°54'0 0.0
2017-Oct-10 23:30N 38°27' E 015°54'0 0.0
2017-Oct-10 22:48N 38°27' E 015°54'0 0.0
2017-Oct-10 22:30N 38°27' E 015°54'0 0.0
2017-Oct-10 22:00N 38°27' E 015°54'0 0.0
2017-Oct-10 21:27N 38°27' E 015°54'0 0.0
2017-Oct-10 21:00N 38°27' E 015°54'0 0.0
2017-Oct-10 20:30N 38°27' E 015°54'0 0.0
2017-Oct-10 20:00N 38°27' E 015°54'0 0.0
2017-Oct-10 19:30N 38°27' E 015°54'0 0.0
2017-Oct-10 08:00N 38°27' E 015°54'0 0.0
2017-Oct-10 07:30N 38°27' E 015°54'0 0.0
2017-Oct-10 06:48N 38°27' E 015°54'0 0.0
2017-Oct-10 06:24N 38°27' E 015°54'0 0.0
2017-Oct-10 06:00N 38°27' E 015°54'0 0.0
2017-Oct-10 05:30N 38°27' E 015°54'0 0.2
2017-Oct-10 05:01N 38°27' E 015°54'2 4.3
2017-Oct-10 04:30N 38°28' E 015°51'611.1
2017-Oct-10 04:00N 38°30' E 015°45'2 3.2
2017-Oct-10 03:30N 38°31' E 015°43'0 0.2
2017-Oct-10 03:00N 38°31' E 015°43'0 0.2
2017-Oct-10 02:30N 38°31' E 015°44'0 0.2
2017-Oct-10 02:00N 38°31' E 015°44'0 0.4
2017-Oct-10 01:30N 38°31' E 015°43'0 0.7
2017-Oct-10 01:00N 38°31' E 015°43'1 1.1
2017-Oct-10 00:30N 38°30' E 015°42'1 1.3
2017-Oct-10 00:00N 38°30' E 015°42'1 1.4
2017-Oct-09 23:30N 38°29' E 015°42'510.2
2017-Oct-09 23:00N 38°25' E 015°47'510.8
2017-Oct-09 22:30N 38°20' E 015°45'611.1
2017-Oct-09 22:00N 38°16' E 015°41'510.0
2017-Oct-09 21:30N 38°12' E 015°37'612.0
2017-Oct-09 21:00N 38°06' E 015°36'611.6
2017-Oct-09 20:30N 38°00' E 015°35'611.8
2017-Oct-09 20:00N 37°55' E 015°38'612.0
2017-Oct-09 19:30N 37°49' E 015°42'611.4
2017-Oct-09 19:00N 37°45' E 015°46'611.5
2017-Oct-09 18:30N 37°41' E 015°51'611.4
2017-Oct-09 18:00N 37°36' E 015°56'3 6.6
2017-Oct-09 17:30N 37°36' E 015°60'0 0.5
2017-Oct-09 17:00N 37°36' E 015°60'0 0.4
2017-Oct-09 16:30N 37°36' E 015°60'7 0.6
2017-Oct-09 05:32N 37°32' E 015°53'0 0.7
2017-Oct-09 05:28N 37°32' E 015°53'0 0.7
2017-Oct-09 04:59N 37°32' E 015°53'0 0.7
2017-Oct-09 04:28N 37°32' E 015°52'0 0.6
2017-Oct-09 03:59N 37°32' E 015°52'5 0.5
2017-Oct-08 16:56N 37°32' E 015°45'912.4
2017-Oct-08 16:12N 37°29' E 015°34'2 0.4
2017-Oct-08 11:04N 37°30' E 015°32'0 0.6
2017-Oct-08 11:00N 37°30' E 015°32'0 0.5
2017-Oct-08 10:29N 37°30' E 015°32'0 0.8
2017-Oct-08 10:00N 37°30' E 015°32'1 0.9
2017-Oct-08 09:25N 37°31' E 015°32'0 1.0
2017-Oct-08 08:59N 37°31' E 015°32'0 0.9
2017-Oct-08 08:30N 37°32' E 015°32'0 0.9
2017-Oct-08 07:59N 37°32' E 015°32'1 1.1
2017-Oct-08 07:24N 37°33' E 015°32'0 1.1
2017-Oct-08 07:00N 37°33' E 015°32'1 1.0
2017-Oct-08 06:28N 37°34' E 015°33'0 1.1
2017-Oct-08 06:00N 37°34' E 015°33'1 1.2
2017-Oct-08 05:30N 37°35' E 015°33'1 1.1
2017-Oct-08 04:59N 37°35' E 015°33'1 1.1
2017-Oct-08 04:30N 37°36' E 015°34'0 0.9
2017-Oct-08 04:00N 37°36' E 015°34'0 1.0
2017-Oct-08 03:30N 37°36' E 015°34'1 1.3
2017-Oct-08 03:00N 37°37' E 015°35'1 1.3
2017-Oct-08 02:28N 37°38' E 015°35'1 1.4
2017-Oct-08 02:00N 37°38' E 015°35'1 1.4
2017-Oct-08 01:30N 37°39' E 015°36'1 1.5
2017-Oct-08 01:00N 37°39' E 015°36'1 1.4
2017-Oct-08 00:30N 37°40' E 015°37'1 1.4
2017-Oct-07 23:59N 37°40' E 015°38'1 1.3
2017-Oct-07 23:30N 37°41' E 015°38'1 1.3
2017-Oct-07 23:00N 37°41' E 015°39'1 1.4
2017-Oct-07 22:30N 37°42' E 015°39'1 1.5
2017-Oct-07 22:01N 37°42' E 015°40'1 1.5
2017-Oct-07 21:28N 37°43' E 015°40'1 1.4
2017-Oct-07 21:00N 37°44' E 015°41'1 1.3
2017-Oct-07 20:30N 37°44' E 015°41'1 1.1
2017-Oct-07 20:00N 37°45' E 015°42'1 1.1
2017-Oct-07 19:30N 37°45' E 015°42'1 1.0
2017-Oct-07 19:00N 37°46' E 015°42'1 1.1
2017-Oct-07 18:30N 37°46' E 015°43'0 0.7
2017-Oct-07 18:01N 37°46' E 015°43'510.3
2017-Oct-07 17:30N 37°48' E 015°37'4 7.1
2017-Oct-07 17:00N 37°51' E 015°34'611.4
2017-Oct-07 16:30N 37°57' E 015°34'611.5
2017-Oct-07 16:00N 38°03' E 015°34'611.5
2017-Oct-07 15:30N 38°08' E 015°35'611.3
2017-Oct-07 15:00N 38°14' E 015°36'5 9.8
2017-Oct-07 14:30N 38°17' E 015°41'3 5.5
2017-Oct-07 14:00N 38°18' E 015°44'510.4
2017-Oct-07 13:30N 38°15' E 015°39'5 9.4
2017-Oct-07 13:00N 38°11' E 015°37'4 9.0
2017-Oct-07 12:30N 38°06' E 015°36'510.5
2017-Oct-07 12:00N 38°01' E 015°35'5 9.8
2017-Oct-07 11:30N 37°56' E 015°37'5 9.6
2017-Oct-07 11:00N 37°52' E 015°40'510.5
2017-Oct-07 10:30N 37°52' E 015°46'611.0
2017-Oct-07 10:00N 37°52' E 015°53'  

Dump ship's entire track history